createdAt,value
2023-02-24T00:04:08.307Z,996.82
2023-02-24T00:09:08.178Z,996.64
2023-02-24T00:14:08.044Z,996.53
2023-02-24T00:19:08.010Z,996.68
2023-02-24T00:24:07.967Z,996.72
2023-02-24T00:29:07.850Z,996.57
2023-02-24T00:34:07.794Z,996.70
2023-02-24T00:39:07.741Z,996.63
2023-02-24T00:44:07.677Z,996.60
2023-02-24T00:49:07.595Z,996.50
2023-02-24T00:54:07.548Z,996.52
2023-02-24T00:59:07.487Z,996.47
2023-02-24T01:04:07.444Z,996.37
2023-02-24T01:09:07.355Z,996.41
2023-02-24T01:14:07.289Z,996.42
2023-02-24T01:19:07.241Z,996.37
2023-02-24T01:24:07.155Z,996.45
2023-02-24T01:29:07.097Z,996.45
2023-02-24T01:34:07.050Z,996.25
2023-02-24T01:39:06.948Z,996.27
2023-02-24T01:44:06.964Z,996.19
2023-02-24T01:49:06.821Z,996.03
2023-02-24T01:54:06.806Z,995.93
2023-02-24T01:59:06.718Z,995.88
2023-02-24T02:04:06.634Z,995.94
2023-02-24T02:09:06.589Z,995.82
2023-02-24T02:14:06.527Z,995.81
2023-02-24T02:19:06.485Z,995.74
2023-02-24T02:24:06.376Z,995.72
2023-02-24T02:29:06.354Z,995.70
2023-02-24T02:34:06.259Z,995.64
2023-02-24T02:39:06.217Z,995.69
2023-02-24T02:44:06.155Z,995.57
2023-02-24T02:49:06.081Z,995.60
2023-02-24T02:54:06.013Z,995.66
2023-02-24T02:59:05.944Z,995.61
2023-02-24T03:04:05.865Z,995.62
2023-02-24T03:09:05.810Z,995.59
2023-02-24T03:14:05.732Z,995.63
2023-02-24T03:19:05.691Z,995.58
2023-02-24T03:24:05.615Z,995.60
2023-02-24T03:29:05.556Z,995.49
2023-02-24T03:34:05.566Z,995.48
2023-02-24T03:39:05.431Z,995.53
2023-02-24T03:44:05.349Z,995.50
2023-02-24T03:49:05.301Z,995.56
2023-02-24T03:54:05.271Z,995.55
2023-02-24T03:59:05.158Z,995.50
2023-02-24T04:04:05.077Z,995.66
2023-02-24T04:09:05.059Z,995.57
2023-02-24T04:14:04.946Z,995.45
2023-02-24T04:19:04.909Z,995.40
2023-02-24T04:24:04.827Z,995.42
2023-02-24T04:29:04.766Z,995.31
2023-02-24T04:34:04.706Z,995.17
2023-02-24T04:39:04.625Z,995.12
2023-02-24T04:44:04.571Z,995.11
2023-02-24T04:49:04.544Z,995.07
2023-02-24T04:54:04.436Z,994.95
2023-02-24T04:59:04.385Z,994.89
2023-02-24T05:04:04.407Z,994.79
2023-02-24T05:09:04.249Z,994.85
2023-02-24T05:14:04.233Z,994.75
2023-02-24T05:19:04.108Z,994.72
2023-02-24T05:24:04.051Z,994.62
2023-02-24T05:29:04.019Z,994.69
2023-02-24T05:34:03.906Z,994.70
2023-02-24T05:39:03.862Z,994.62
2023-02-24T05:44:03.799Z,994.74
2023-02-24T05:49:03.706Z,994.69
2023-02-24T05:54:03.635Z,994.83
2023-02-24T05:59:03.563Z,994.75
2023-02-24T06:04:03.519Z,994.76
2023-02-24T06:09:03.464Z,994.65
2023-02-24T06:14:04.398Z,994.66
2023-02-24T06:19:03.333Z,994.76
2023-02-24T06:24:03.282Z,994.87
2023-02-24T06:29:03.194Z,994.86
2023-02-24T06:34:03.114Z,994.84
2023-02-24T06:39:03.067Z,994.87
2023-02-24T06:44:03.006Z,994.88
2023-02-24T06:49:02.986Z,994.91
2023-02-24T06:54:02.887Z,994.90
2023-02-24T06:59:02.800Z,994.85
2023-02-24T07:04:02.853Z,994.88
2023-02-24T07:09:02.666Z,994.94
2023-02-24T07:14:02.609Z,994.90
2023-02-24T07:19:02.538Z,994.90
2023-02-24T07:24:02.466Z,994.75
2023-02-24T07:29:02.449Z,994.84
2023-02-24T07:34:02.387Z,994.78
2023-02-24T07:39:02.277Z,994.65
2023-02-24T07:44:02.195Z,994.72
2023-02-24T07:49:02.162Z,994.72
2023-02-24T07:54:02.105Z,994.76
2023-02-24T07:59:02.311Z,994.65
2023-02-24T08:04:02.005Z,994.56
2023-02-24T08:09:01.878Z,994.35
2023-02-24T08:14:01.834Z,994.21
2023-02-24T08:19:01.772Z,994.31
2023-02-24T08:24:01.664Z,994.37
2023-02-24T08:29:01.667Z,994.16
2023-02-24T08:34:01.557Z,994.11
2023-02-24T08:39:01.509Z,994.06
2023-02-24T08:44:01.525Z,994.09
2023-02-24T08:49:01.396Z,994.04
2023-02-24T08:54:01.308Z,993.98
2023-02-24T08:59:01.245Z,993.95
2023-02-24T09:04:01.213Z,993.74
2023-02-24T09:09:01.121Z,993.63
2023-02-24T09:14:01.060Z,993.49
2023-02-24T09:19:00.969Z,993.54
2023-02-24T09:24:00.915Z,993.35
2023-02-24T09:29:00.864Z,993.37
2023-02-24T09:34:00.789Z,993.16
2023-02-24T09:39:00.951Z,993.10
2023-02-24T09:44:00.620Z,993.04
2023-02-24T09:49:00.593Z,992.94
2023-02-24T09:54:00.489Z,992.94
2023-02-24T09:59:00.418Z,992.87
2023-02-24T10:04:02.350Z,992.68
2023-02-24T10:09:01.329Z,992.67
2023-02-24T10:14:03.651Z,992.44
2023-02-24T10:19:00.184Z,992.39
2023-02-24T10:24:00.117Z,992.24
2023-02-24T10:29:00.029Z,992.16
2023-02-24T10:33:59.975Z,991.99
2023-02-24T10:38:59.933Z,991.90
2023-02-24T10:43:59.926Z,991.87
2023-02-24T10:48:59.792Z,991.71
2023-02-24T10:53:59.734Z,991.66
2023-02-24T10:59:01.683Z,991.51
2023-02-24T11:03:59.607Z,991.46
2023-02-24T11:08:59.487Z,991.29
2023-02-24T11:13:59.435Z,991.26
2023-02-24T11:18:59.389Z,991.15
2023-02-24T11:23:59.321Z,990.93
2023-02-24T11:28:59.246Z,990.77
2023-02-24T11:33:59.169Z,990.67
2023-02-24T11:39:15.311Z,990.53
2023-02-24T11:44:00.049Z,990.46
2023-02-24T11:48:59.001Z,990.28
2023-02-24T11:53:58.937Z,990.32
2023-02-24T11:58:58.891Z,990.12
2023-02-24T12:03:58.772Z,990.14
2023-02-24T12:08:58.739Z,989.90
2023-02-24T12:13:58.639Z,989.83
2023-02-24T12:18:58.781Z,989.62
2023-02-24T12:23:58.606Z,989.53
2023-02-24T12:28:58.638Z,989.46
2023-02-24T12:33:58.397Z,989.46
2023-02-24T12:38:58.327Z,989.46
2023-02-24T12:43:58.233Z,989.31
2023-02-24T12:48:58.199Z,989.20
2023-02-24T12:53:58.097Z,989.05
2023-02-24T12:58:58.049Z,989.07
2023-02-24T13:03:57.985Z,988.90
2023-02-24T13:08:57.908Z,988.75
2023-02-24T13:13:57.845Z,988.68
2023-02-24T13:18:57.796Z,988.65
2023-02-24T13:23:58.375Z,988.51
2023-02-24T13:28:57.678Z,988.40
2023-02-24T13:33:57.627Z,988.31
2023-02-24T13:38:57.537Z,988.25
2023-02-24T13:43:57.452Z,988.17
2023-02-24T13:48:57.389Z,988.18
2023-02-24T13:53:57.756Z,988.01
2023-02-24T13:58:57.256Z,987.91
2023-02-24T14:03:57.207Z,987.90
2023-02-24T14:08:57.107Z,987.84
2023-02-24T14:13:57.035Z,987.79
2023-02-24T14:18:57.049Z,987.73
2023-02-24T14:23:56.919Z,987.86
2023-02-24T14:28:56.870Z,987.80
2023-02-24T14:33:56.856Z,987.87
2023-02-24T14:38:56.736Z,987.70
2023-02-24T14:43:56.666Z,987.49
2023-02-24T14:48:56.604Z,987.54
2023-02-24T14:53:56.554Z,987.47
2023-02-24T14:58:56.468Z,987.39
2023-02-24T15:03:56.423Z,987.31
2023-02-24T15:08:56.335Z,987.25
2023-02-24T15:13:56.300Z,987.15
2023-02-24T15:18:56.232Z,987.14
2023-02-24T15:23:56.190Z,986.98
2023-02-24T15:28:56.303Z,986.93
2023-02-24T15:33:56.023Z,986.85
2023-02-24T15:38:55.968Z,986.84
2023-02-24T15:43:55.891Z,986.82
2023-02-24T15:48:55.831Z,986.71
2023-02-24T15:53:55.764Z,986.61
2023-02-24T15:58:55.718Z,986.72
2023-02-24T16:03:55.657Z,986.78
2023-02-24T16:08:55.589Z,986.66
2023-02-24T16:13:56.320Z,986.69
2023-02-24T16:18:55.577Z,986.66
2023-02-24T16:23:55.338Z,986.67
2023-02-24T16:28:55.333Z,986.60
2023-02-24T16:33:56.046Z,986.64
2023-02-24T16:38:55.219Z,986.59
2023-02-24T16:43:55.107Z,986.63
2023-02-24T16:48:55.088Z,986.56
2023-02-24T16:53:55.016Z,986.62
2023-02-24T16:58:54.910Z,986.60
2023-02-24T17:03:55.129Z,986.56
2023-02-24T17:08:54.824Z,986.61
2023-02-24T17:13:54.827Z,986.49
2023-02-24T17:18:54.660Z,986.50
2023-02-24T17:23:54.647Z,986.46
2023-02-24T17:28:54.877Z,986.48
2023-02-24T17:33:54.602Z,986.30
2023-02-24T17:38:54.418Z,986.27
2023-02-24T17:43:54.406Z,986.26
2023-02-24T17:48:54.338Z,986.28
2023-02-24T17:53:54.543Z,986.17
2023-02-24T17:58:54.142Z,986.04
2023-02-24T18:03:54.168Z,986.07
2023-02-24T18:08:54.083Z,986.06
2023-02-24T18:13:53.978Z,985.95
2023-02-24T18:20:06.314Z,986.02
2023-02-24T18:27:29.822Z,985.88
2023-02-24T18:32:29.978Z,985.98
2023-02-24T18:37:29.724Z,985.81
2023-02-24T18:42:29.651Z,985.88
2023-02-24T18:47:29.598Z,985.76
2023-02-24T18:52:29.529Z,985.79
2023-02-24T18:57:29.543Z,985.70
2023-02-24T19:02:29.424Z,985.72
2023-02-24T19:07:29.368Z,985.67
2023-02-24T19:12:29.370Z,985.63
2023-02-24T19:17:29.179Z,985.64
2023-02-24T19:22:29.156Z,985.47
2023-02-24T19:27:29.061Z,985.48
2023-02-24T19:32:29.134Z,985.45
2023-02-24T19:37:28.993Z,985.47
2023-02-24T19:42:28.852Z,985.36
2023-02-24T19:47:28.801Z,985.41
2023-02-24T19:52:28.732Z,985.29
2023-02-24T19:57:28.663Z,985.19
2023-02-24T20:02:28.750Z,985.05
2023-02-24T20:07:28.842Z,985.03
2023-02-24T20:12:28.460Z,985.08
2023-02-24T20:17:28.693Z,985.00
2023-02-24T20:22:28.505Z,984.92
2023-02-24T20:27:28.355Z,984.71
2023-02-24T20:32:28.373Z,984.87
2023-02-24T20:37:28.174Z,984.87
2023-02-24T20:42:28.130Z,984.94
2023-02-24T20:47:28.068Z,984.83
2023-02-24T20:52:28.022Z,984.69
2023-02-24T20:57:27.909Z,984.56
2023-02-24T21:02:27.868Z,984.55
2023-02-24T21:07:27.793Z,984.52
2023-02-24T21:12:27.700Z,984.58
2023-02-24T21:17:29.748Z,984.50
2023-02-24T21:22:27.583Z,984.38
2023-02-24T21:27:27.534Z,984.38
2023-02-24T21:32:27.502Z,984.29
2023-02-24T21:37:27.375Z,984.27
2023-02-24T21:42:27.359Z,984.29
2023-02-24T21:47:27.283Z,984.32
2023-02-24T21:52:27.199Z,984.26
2023-02-24T21:57:27.156Z,984.05
2023-02-24T22:02:27.122Z,984.08
2023-02-24T22:07:27.042Z,984.04
2023-02-24T22:12:27.018Z,984.00
2023-02-24T22:17:26.845Z,983.97
2023-02-24T22:22:26.876Z,983.81
2023-02-24T22:27:26.850Z,983.58
2023-02-24T22:32:26.728Z,983.70
2023-02-24T22:37:26.676Z,983.78
2023-02-24T22:42:26.588Z,983.69
2023-02-24T22:47:26.497Z,983.65
2023-02-24T22:52:26.434Z,983.61
2023-02-24T22:57:26.331Z,983.64
2023-02-24T23:02:26.329Z,983.60
2023-02-24T23:07:26.256Z,983.57
2023-02-24T23:12:26.196Z,983.66
2023-02-24T23:17:26.102Z,983.50
2023-02-24T23:22:26.023Z,983.49
2023-02-24T23:27:25.947Z,983.53
2023-02-24T23:32:26.144Z,983.57
2023-02-24T23:37:25.873Z,983.50
2023-02-24T23:42:25.776Z,983.55
2023-02-24T23:47:25.746Z,983.67
2023-02-24T23:52:25.643Z,983.78
2023-02-24T23:57:25.593Z,983.74
